createdAt,value
2018-07-09T00:01:48.226Z,6.20
2018-07-09T00:04:15.631Z,5.85
2018-07-09T00:06:43.006Z,6.15
2018-07-09T00:09:10.390Z,6.83
2018-07-09T00:11:37.810Z,6.47
2018-07-09T00:14:05.201Z,5.85
2018-07-09T00:16:32.603Z,5.78
2018-07-09T00:19:00.014Z,7.12
2018-07-09T00:21:27.425Z,6.50
2018-07-09T00:23:54.787Z,6.53
2018-07-09T00:26:22.142Z,6.65
2018-07-09T00:28:49.802Z,6.17
2018-07-09T00:31:17.165Z,7.30
2018-07-09T00:33:44.534Z,6.90
2018-07-09T00:36:11.925Z,6.70
2018-07-09T00:38:39.298Z,6.80
2018-07-09T00:41:06.841Z,6.75
2018-07-09T00:43:34.269Z,7.12
2018-07-09T00:46:01.687Z,6.25
2018-07-09T00:48:29.098Z,7.15
2018-07-09T00:50:56.573Z,6.90
2018-07-09T00:53:24.026Z,6.78
2018-07-09T00:55:51.404Z,6.90
2018-07-09T00:58:18.820Z,7.30
2018-07-09T01:00:46.178Z,7.58
2018-07-09T01:03:13.533Z,7.87
2018-07-09T01:05:40.894Z,7.20
2018-07-09T01:08:08.249Z,7.30
2018-07-09T01:10:40.113Z,7.40
2018-07-09T01:13:07.450Z,7.70
2018-07-09T01:15:34.787Z,7.90
2018-07-09T01:18:02.181Z,7.62
2018-07-09T01:20:29.659Z,7.17
2018-07-09T01:22:57.006Z,7.40
2018-07-09T01:25:24.442Z,8.10
2018-07-09T01:27:51.865Z,7.30
2018-07-09T01:30:19.258Z,7.25
2018-07-09T01:32:46.613Z,8.05
2018-07-09T01:35:14.532Z,8.05
2018-07-09T01:37:42.496Z,8.23
2018-07-09T01:40:10.129Z,7.37
2018-07-09T01:42:37.588Z,7.60
2018-07-09T01:45:05.118Z,8.75
2018-07-09T01:47:32.592Z,7.72
2018-07-09T01:50:00.072Z,7.70
2018-07-09T01:52:27.756Z,8.90
2018-07-09T01:54:55.150Z,8.38
2018-07-09T01:57:22.533Z,8.15
2018-07-09T01:59:49.925Z,8.10
2018-07-09T02:02:17.378Z,8.70
2018-07-09T02:04:44.841Z,9.65
2018-07-09T02:07:12.226Z,8.93
2018-07-09T02:10:42.846Z,8.45
2018-07-09T02:13:10.250Z,10.23
2018-07-09T02:15:37.607Z,9.05
2018-07-09T02:18:05.173Z,9.45
2018-07-09T02:20:32.616Z,9.33
2018-07-09T02:22:59.964Z,9.18
2018-07-09T02:25:27.585Z,9.30
2018-07-09T02:27:55.039Z,8.90
2018-07-09T02:30:22.440Z,9.70
2018-07-09T02:32:49.815Z,9.20
2018-07-09T02:35:17.222Z,9.93
2018-07-09T02:37:44.635Z,8.63
2018-07-09T02:40:12.014Z,9.25
2018-07-09T02:42:39.706Z,10.60
2018-07-09T02:45:07.338Z,10.32
2018-07-09T02:47:34.719Z,11.57
2018-07-09T02:50:02.142Z,9.35
2018-07-09T02:52:29.585Z,11.80
2018-07-09T02:54:56.974Z,9.48
2018-07-09T02:57:24.345Z,10.23
2018-07-09T02:59:51.785Z,10.85
2018-07-09T03:02:19.224Z,10.50
2018-07-09T03:04:46.608Z,12.00
2018-07-09T03:07:14.002Z,14.28
2018-07-09T03:09:41.457Z,12.28
2018-07-09T03:12:08.828Z,11.60
2018-07-09T03:14:36.231Z,11.85
2018-07-09T03:17:03.699Z,12.78
2018-07-09T03:19:31.295Z,13.08
2018-07-09T03:21:59.697Z,12.37
2018-07-09T03:24:27.046Z,13.93
2018-07-09T03:26:54.610Z,12.95
2018-07-09T03:29:21.975Z,13.50
2018-07-09T03:31:49.326Z,12.55
2018-07-09T03:34:16.739Z,14.07
2018-07-09T03:36:44.164Z,12.33
2018-07-09T03:39:11.549Z,12.07
2018-07-09T03:41:38.919Z,11.38
2018-07-09T03:44:06.406Z,12.30
2018-07-09T03:46:33.766Z,11.78
2018-07-09T03:49:01.142Z,12.07
2018-07-09T03:51:28.573Z,12.05
2018-07-09T03:53:55.987Z,11.10
2018-07-09T03:56:23.377Z,13.50
2018-07-09T03:58:50.817Z,12.53
2018-07-09T04:01:18.322Z,13.03
2018-07-09T04:03:45.713Z,13.25
2018-07-09T04:06:13.116Z,12.95
2018-07-09T04:08:40.493Z,12.70
2018-07-09T04:11:07.945Z,12.47
2018-07-09T04:13:35.395Z,13.00
2018-07-09T04:16:02.777Z,13.08
2018-07-09T04:18:30.208Z,13.72
2018-07-09T04:20:57.576Z,13.28
2018-07-09T04:23:25.021Z,12.43
2018-07-09T04:25:52.618Z,12.80
2018-07-09T04:28:20.619Z,12.95
2018-07-09T04:30:48.421Z,12.90
2018-07-09T04:33:18.133Z,12.28
2018-07-09T04:35:45.636Z,12.75
2018-07-09T04:38:13.038Z,12.20
2018-07-09T04:40:40.452Z,12.70
2018-07-09T04:43:07.833Z,14.28
2018-07-09T04:45:35.217Z,13.50
2018-07-09T04:48:02.676Z,13.20
2018-07-09T04:50:30.424Z,12.60
2018-07-09T04:52:57.820Z,13.45
2018-07-09T04:55:25.222Z,13.30
2018-07-09T04:57:52.723Z,13.45
2018-07-09T05:00:20.141Z,15.08
2018-07-09T05:02:47.567Z,15.25
2018-07-09T05:05:15.020Z,14.58
2018-07-09T05:07:42.398Z,13.45
2018-07-09T05:10:09.810Z,14.45
2018-07-09T05:12:37.390Z,15.05
2018-07-09T05:15:04.852Z,16.05
2018-07-09T05:17:32.395Z,15.23
2018-07-09T05:20:00.316Z,15.23
2018-07-09T05:22:34.586Z,15.20
2018-07-09T05:25:01.989Z,13.40
2018-07-09T05:27:29.355Z,15.27
2018-07-09T05:29:56.734Z,13.90
2018-07-09T05:32:24.125Z,13.40
2018-07-09T05:34:51.502Z,14.00
2018-07-09T05:37:18.969Z,13.57
2018-07-09T05:39:46.415Z,15.67
2018-07-09T05:42:13.809Z,15.07
2018-07-09T05:44:41.249Z,13.17
2018-07-09T05:47:09.377Z,13.40
2018-07-09T05:49:36.847Z,13.33
2018-07-09T05:52:04.302Z,12.83
2018-07-09T05:54:31.689Z,13.53
2018-07-09T05:56:59.065Z,12.50
2018-07-09T05:59:26.554Z,12.13
2018-07-09T06:01:54.158Z,12.70
2018-07-09T06:04:21.589Z,11.67
2018-07-09T06:06:49.507Z,11.20
2018-07-09T06:09:16.994Z,12.70
2018-07-09T06:11:44.426Z,11.67
2018-07-09T06:14:11.820Z,11.87
2018-07-09T06:16:39.444Z,13.40
2018-07-09T06:19:06.922Z,12.03
2018-07-09T06:21:34.361Z,10.80
2018-07-09T06:24:02.064Z,9.30
2018-07-09T06:26:29.455Z,9.57
2018-07-09T06:28:56.865Z,8.80
2018-07-09T06:31:24.307Z,8.47
2018-07-09T06:33:52.892Z,6.80
2018-07-09T06:36:20.290Z,7.20
2018-07-09T06:38:47.689Z,6.30
2018-07-09T06:41:15.416Z,7.57
2018-07-09T06:43:43.746Z,7.47
2018-07-09T06:46:11.912Z,7.93
2018-07-09T06:48:40.831Z,7.37
2018-07-09T06:51:09.670Z,8.13
2018-07-09T06:53:37.516Z,8.70
2018-07-09T06:56:08.557Z,9.80
2018-07-09T06:58:36.092Z,8.50
2018-07-09T07:01:06.343Z,9.00
2018-07-09T07:03:34.483Z,8.70
2018-07-09T07:06:05.584Z,8.53
2018-07-09T07:08:33.272Z,8.50
2018-07-09T07:11:01.503Z,8.10
2018-07-09T07:13:28.885Z,8.30
2018-07-09T07:15:56.304Z,8.10
2018-07-09T07:18:23.940Z,8.63
2018-07-09T07:20:51.354Z,8.43
2018-07-09T07:23:18.769Z,8.50
2018-07-09T07:25:46.197Z,8.83
2018-07-09T07:28:13.622Z,8.20
2018-07-09T07:30:41.040Z,7.90
2018-07-09T07:33:08.484Z,8.40
2018-07-09T07:35:35.925Z,8.50
2018-07-09T07:38:03.474Z,8.20
2018-07-09T07:40:30.877Z,6.67
2018-07-09T07:43:00.617Z,6.60
2018-07-09T07:45:28.026Z,7.80
2018-07-09T07:47:55.411Z,7.60
2018-07-09T07:50:22.835Z,7.07
2018-07-09T07:52:50.395Z,6.43
2018-07-09T07:55:17.898Z,6.50
2018-07-09T07:57:45.651Z,6.53
2018-07-09T08:00:13.085Z,6.57
2018-07-09T08:02:40.556Z,6.40
2018-07-09T08:05:07.949Z,7.10
2018-07-09T08:07:35.922Z,7.47
2018-07-09T08:10:03.570Z,7.40
2018-07-09T08:13:01.003Z,7.40
2018-07-09T08:14:58.431Z,6.60
2018-07-09T08:17:25.978Z,7.50
2018-07-09T08:19:53.350Z,7.57
2018-07-09T08:22:20.734Z,6.77
2018-07-09T08:24:48.243Z,7.50
2018-07-09T08:27:15.608Z,8.23
2018-07-09T08:29:42.983Z,7.70
2018-07-09T08:32:10.428Z,7.73
2018-07-09T08:34:37.809Z,8.00
2018-07-09T08:37:05.207Z,7.73
2018-07-09T08:39:32.576Z,7.53
2018-07-09T08:41:59.977Z,7.80
2018-07-09T08:44:27.359Z,7.57
2018-07-09T08:46:54.808Z,7.77
2018-07-09T08:49:22.210Z,8.10
2018-07-09T08:51:49.589Z,7.70
2018-07-09T08:54:17.121Z,7.40
2018-07-09T08:56:44.569Z,9.03
2018-07-09T08:59:11.946Z,8.00
2018-07-09T09:01:39.321Z,7.87
2018-07-09T09:04:06.936Z,7.90
2018-07-09T09:06:34.351Z,8.10
2018-07-09T09:09:01.702Z,8.30
2018-07-09T09:11:29.113Z,8.10
2018-07-09T09:13:56.458Z,7.93
2018-07-09T09:16:23.876Z,8.77
2018-07-09T09:18:51.950Z,8.07
2018-07-09T09:21:19.358Z,8.27
2018-07-09T09:23:46.767Z,8.53
2018-07-09T09:26:14.150Z,9.80
2018-07-09T09:28:41.503Z,9.10
2018-07-09T09:31:08.953Z,9.37
2018-07-09T09:33:36.333Z,9.80
2018-07-09T09:36:03.743Z,9.90
2018-07-09T09:38:31.231Z,9.30
2018-07-09T09:40:58.777Z,9.27
2018-07-09T09:43:26.145Z,10.23
2018-07-09T09:45:53.581Z,8.80
2018-07-09T09:48:20.939Z,9.10
2018-07-09T09:50:48.374Z,7.87
2018-07-09T09:53:15.789Z,8.87
2018-07-09T09:55:43.189Z,9.00
2018-07-09T09:58:10.627Z,10.10
2018-07-09T10:00:43.436Z,9.53
2018-07-09T10:03:10.856Z,9.20
2018-07-09T10:05:38.233Z,9.33
2018-07-09T10:08:05.634Z,8.77
2018-07-09T10:10:32.978Z,9.03
2018-07-09T10:13:00.403Z,10.03
2018-07-09T10:15:27.753Z,8.83
2018-07-09T10:17:55.110Z,8.30
2018-07-09T10:20:22.578Z,10.77
2018-07-09T10:22:49.954Z,8.60
2018-07-09T10:25:17.350Z,8.47
2018-07-09T10:27:44.726Z,8.73
2018-07-09T10:30:12.081Z,8.93
2018-07-09T10:32:39.459Z,8.80
2018-07-09T10:35:06.821Z,8.60
2018-07-09T10:37:34.214Z,9.23
2018-07-09T10:40:01.599Z,9.27
2018-07-09T10:42:29.001Z,9.13
2018-07-09T10:44:56.408Z,9.57
2018-07-09T10:47:23.779Z,9.40
2018-07-09T10:49:51.176Z,9.03
2018-07-09T10:52:18.564Z,8.53
2018-07-09T10:54:45.926Z,8.47
2018-07-09T10:57:13.291Z,8.93
2018-07-09T10:59:40.771Z,8.27
2018-07-09T11:02:08.142Z,8.50
2018-07-09T11:04:35.496Z,8.70
2018-07-09T11:07:03.273Z,7.80
2018-07-09T11:09:30.761Z,8.10
2018-07-09T11:11:58.140Z,8.40
2018-07-09T11:14:25.516Z,10.93
2018-07-09T11:16:52.875Z,7.97
2018-07-09T11:19:20.286Z,8.43
2018-07-09T11:21:47.692Z,8.57
2018-07-09T11:24:15.052Z,8.80
2018-07-09T11:26:42.882Z,8.57
2018-07-09T11:29:10.268Z,8.20
2018-07-09T11:31:37.641Z,8.53
2018-07-09T11:34:05.039Z,9.30
2018-07-09T11:36:32.405Z,8.37
2018-07-09T11:38:59.770Z,8.33
2018-07-09T11:41:27.353Z,7.40
2018-07-09T11:43:54.761Z,6.70
2018-07-09T11:46:22.100Z,7.10
2018-07-09T11:48:49.500Z,6.73
2018-07-09T11:51:16.939Z,6.67
2018-07-09T11:53:44.393Z,6.87
2018-07-09T11:56:11.782Z,5.77
2018-07-09T11:58:39.243Z,5.40
2018-07-09T12:01:06.592Z,6.97
2018-07-09T12:03:34.027Z,5.63
2018-07-09T12:06:01.379Z,7.43
2018-07-09T12:08:28.774Z,7.03
2018-07-09T12:10:56.142Z,6.10
2018-07-09T12:13:23.603Z,6.47
2018-07-09T12:15:50.978Z,7.10
2018-07-09T12:18:18.388Z,6.57
2018-07-09T12:20:45.802Z,7.00
2018-07-09T12:23:13.197Z,6.30
2018-07-09T12:25:40.582Z,7.50
2018-07-09T12:28:07.957Z,6.77
2018-07-09T12:30:35.306Z,5.87
2018-07-09T12:33:02.742Z,5.87
2018-07-09T12:35:30.158Z,5.73
2018-07-09T12:37:58.386Z,6.10
2018-07-09T12:40:25.777Z,6.13
2018-07-09T12:42:53.146Z,6.00
2018-07-09T12:45:20.523Z,5.83
2018-07-09T12:47:48.068Z,6.40
2018-07-09T12:50:15.478Z,5.70
2018-07-09T12:52:42.906Z,5.90
2018-07-09T12:55:10.322Z,6.00
2018-07-09T12:57:37.734Z,5.47
2018-07-09T13:00:05.143Z,6.10
2018-07-09T13:02:32.503Z,6.87
2018-07-09T13:04:59.874Z,6.60
2018-07-09T13:07:27.278Z,6.00
2018-07-09T13:09:54.628Z,6.20
2018-07-09T13:12:28.826Z,5.80
2018-07-09T13:14:57.501Z,7.10
2018-07-09T13:17:24.865Z,7.00
2018-07-09T13:19:52.281Z,5.97
2018-07-09T13:22:20.118Z,5.73
2018-07-09T13:24:47.571Z,4.37
2018-07-09T13:27:15.022Z,4.43
2018-07-09T13:29:42.420Z,4.27
2018-07-09T13:32:09.857Z,4.63
2018-07-09T13:34:37.383Z,5.00
2018-07-09T13:37:05.760Z,4.53
2018-07-09T13:39:33.416Z,4.30
2018-07-09T13:42:00.804Z,4.20
2018-07-09T13:44:28.216Z,4.30
2018-07-09T13:46:55.823Z,4.33
2018-07-09T13:49:23.219Z,4.83
2018-07-09T13:51:50.658Z,4.20
2018-07-09T13:54:18.063Z,4.23
2018-07-09T13:56:45.434Z,3.67
2018-07-09T13:59:12.861Z,3.70
2018-07-09T14:01:40.294Z,4.80
2018-07-09T14:04:07.993Z,3.77
2018-07-09T14:06:35.454Z,3.60
2018-07-09T14:09:02.933Z,3.57
2018-07-09T14:11:30.307Z,3.77
2018-07-09T14:13:57.704Z,3.60
2018-07-09T14:16:25.064Z,3.47
2018-07-09T14:18:52.527Z,3.50
2018-07-09T14:21:19.906Z,3.50
2018-07-09T14:23:47.330Z,4.00
2018-07-09T14:26:14.674Z,3.97
2018-07-09T14:28:42.170Z,3.50
2018-07-09T14:31:09.571Z,3.83
2018-07-09T14:33:36.954Z,3.53
2018-07-09T14:36:04.385Z,3.40
2018-07-09T14:38:31.817Z,3.37
2018-07-09T14:40:59.206Z,2.93
2018-07-09T14:43:26.556Z,3.43
2018-07-09T14:45:53.928Z,3.33
2018-07-09T14:48:21.293Z,3.57
2018-07-09T14:50:48.711Z,3.43
2018-07-09T14:53:16.720Z,4.03
2018-07-09T14:55:44.100Z,3.73
2018-07-09T14:58:11.489Z,3.80
2018-07-09T15:00:38.859Z,4.03
2018-07-09T15:03:06.232Z,4.07
2018-07-09T15:05:33.623Z,4.07
2018-07-09T15:08:00.987Z,4.20
2018-07-09T15:10:28.440Z,4.07
2018-07-09T15:12:55.820Z,4.30
2018-07-09T15:15:23.193Z,4.07
2018-07-09T15:17:50.573Z,4.00
2018-07-09T15:20:18.006Z,3.43
2018-07-09T15:22:45.388Z,4.00
2018-07-09T15:25:12.770Z,3.73
2018-07-09T15:27:40.158Z,4.83
2018-07-09T15:30:07.513Z,3.93
2018-07-09T15:32:35.038Z,3.87
2018-07-09T15:35:02.392Z,3.53
2018-07-09T15:37:29.907Z,4.67
2018-07-09T15:39:57.362Z,4.00
2018-07-09T15:42:24.863Z,4.00
2018-07-09T15:44:52.331Z,4.23
2018-07-09T15:47:19.706Z,4.40
2018-07-09T15:49:47.177Z,4.67
2018-07-09T15:52:14.730Z,3.87
2018-07-09T15:54:42.254Z,3.87
2018-07-09T15:57:09.612Z,4.40
2018-07-09T15:59:37.171Z,4.33
2018-07-09T16:02:04.612Z,3.73
2018-07-09T16:04:31.992Z,3.70
2018-07-09T16:06:59.386Z,4.00
2018-07-09T16:09:26.834Z,5.13
2018-07-09T16:11:54.260Z,4.77
2018-07-09T16:14:21.742Z,4.90
2018-07-09T16:16:49.162Z,4.33
2018-07-09T16:19:16.550Z,4.40
2018-07-09T16:21:43.981Z,4.03
2018-07-09T16:24:11.579Z,4.17
2018-07-09T16:26:39.027Z,4.40
2018-07-09T16:29:06.432Z,4.70
2018-07-09T16:31:33.822Z,4.23
2018-07-09T16:34:01.197Z,5.03
2018-07-09T16:36:28.680Z,4.00
2018-07-09T16:38:56.039Z,4.40
2018-07-09T16:41:23.392Z,4.57
2018-07-09T16:43:50.901Z,3.93
2018-07-09T16:46:18.260Z,4.27
2018-07-09T16:48:45.813Z,3.80
2018-07-09T16:51:13.177Z,4.10
2018-07-09T16:53:40.561Z,4.67
2018-07-09T16:56:07.981Z,4.60
2018-07-09T16:58:35.341Z,4.13
2018-07-09T17:01:02.743Z,4.27
2018-07-09T17:03:30.192Z,4.07
2018-07-09T17:05:57.582Z,3.80
2018-07-09T17:08:24.983Z,4.07
2018-07-09T17:10:52.419Z,3.60
2018-07-09T17:13:19.804Z,4.30
2018-07-09T17:15:47.408Z,3.60
2018-07-09T17:18:14.782Z,4.43
2018-07-09T17:20:42.246Z,4.23
2018-07-09T17:23:09.636Z,3.63
2018-07-09T17:25:36.998Z,3.50
2018-07-09T17:28:04.402Z,4.03
2018-07-09T17:30:31.829Z,4.10
2018-07-09T17:32:59.229Z,4.23
2018-07-09T17:35:26.597Z,4.83
2018-07-09T17:37:54.022Z,4.43
2018-07-09T17:40:21.407Z,3.97
2018-07-09T17:42:48.859Z,3.80
2018-07-09T17:45:16.362Z,3.97
2018-07-09T17:47:43.777Z,3.70
2018-07-09T17:50:11.365Z,4.27
2018-07-09T17:52:38.941Z,3.60
2018-07-09T17:55:06.398Z,3.90
2018-07-09T17:57:33.753Z,3.90
2018-07-09T18:00:01.190Z,3.50
2018-07-09T18:02:28.637Z,3.60
2018-07-09T18:04:56.043Z,4.87
2018-07-09T18:07:23.386Z,4.40
2018-07-09T18:09:50.830Z,4.10
2018-07-09T18:12:18.214Z,4.70
2018-07-09T18:14:45.728Z,4.97
2018-07-09T18:17:13.272Z,4.90
2018-07-09T18:19:40.722Z,4.20
2018-07-09T18:22:08.110Z,4.63
2018-07-09T18:24:35.458Z,5.37
2018-07-09T18:27:02.876Z,4.60
2018-07-09T18:29:30.316Z,4.40
2018-07-09T18:31:57.655Z,4.30
2018-07-09T18:34:25.052Z,4.90
2018-07-09T18:36:52.576Z,4.83
2018-07-09T18:39:19.983Z,4.60
2018-07-09T18:41:47.414Z,4.47
2018-07-09T18:44:14.784Z,4.40
2018-07-09T18:46:42.256Z,4.30
2018-07-09T18:49:09.667Z,4.63
2018-07-09T18:51:37.182Z,4.10
2018-07-09T18:54:04.582Z,4.37
2018-07-09T18:56:32.065Z,4.57
2018-07-09T18:58:59.425Z,4.40
2018-07-09T19:01:26.804Z,4.90
2018-07-09T19:03:54.343Z,3.90
2018-07-09T19:06:26.335Z,4.10
2018-07-09T19:08:53.975Z,4.17
2018-07-09T19:11:21.386Z,4.20
2018-07-09T19:13:48.997Z,4.93
2018-07-09T19:16:16.398Z,4.70
2018-07-09T19:18:49.257Z,4.10
2018-07-09T19:21:23.171Z,5.03
2018-07-09T19:23:50.008Z,4.17
2018-07-09T19:26:16.871Z,3.77
2018-07-09T19:28:43.787Z,4.03
2018-07-09T19:31:10.588Z,5.23
2018-07-09T19:33:38.103Z,3.80
2018-07-09T19:36:05.266Z,4.53
2018-07-09T19:38:32.136Z,3.73
2018-07-09T19:40:59.157Z,4.13
2018-07-09T19:43:25.977Z,4.17
2018-07-09T19:45:52.893Z,3.67
2018-07-09T19:48:19.724Z,3.87
2018-07-09T19:50:47.136Z,3.87
2018-07-09T19:53:14.118Z,3.93
2018-07-09T19:55:41.439Z,4.40
2018-07-09T19:58:08.294Z,4.90
2018-07-09T20:00:35.890Z,4.27
2018-07-09T20:03:02.848Z,4.25
2018-07-09T20:05:29.995Z,4.30
2018-07-09T20:07:56.887Z,4.23
2018-07-09T20:10:29.393Z,3.90
2018-07-09T20:13:01.546Z,3.60
2018-07-09T20:15:33.722Z,4.67
2018-07-09T20:18:00.533Z,4.13
2018-07-09T20:20:27.558Z,4.03
2018-07-09T20:22:56.968Z,4.45
2018-07-09T20:25:24.853Z,4.70
2018-07-09T20:27:52.731Z,4.00
2018-07-09T20:30:20.233Z,4.05
2018-07-09T20:32:47.912Z,4.37
2018-07-09T20:35:15.978Z,4.55
2018-07-09T20:37:43.729Z,4.35
2018-07-09T20:40:10.610Z,4.40
2018-07-09T20:42:38.903Z,4.63
2018-07-09T20:45:06.877Z,4.23
2018-07-09T20:47:35.170Z,4.20
2018-07-09T20:50:02.057Z,4.15
2018-07-09T20:52:29.443Z,3.83
2018-07-09T20:54:57.574Z,5.20
2018-07-09T20:57:25.093Z,4.43
2018-07-09T20:59:52.789Z,3.80
2018-07-09T21:02:19.634Z,4.85
2018-07-09T21:04:48.244Z,4.28
2018-07-09T21:07:15.399Z,3.87
2018-07-09T21:09:44.241Z,4.50
2018-07-09T21:12:13.908Z,4.40
2018-07-09T21:14:41.868Z,4.30
2018-07-09T21:17:09.145Z,3.95
2018-07-09T21:19:37.340Z,4.22
2018-07-09T21:22:05.350Z,4.12
2018-07-09T21:24:34.200Z,4.75
2018-07-09T21:27:01.733Z,4.05
2018-07-09T21:29:29.122Z,5.62
2018-07-09T21:31:56.048Z,3.70
2018-07-09T21:34:25.483Z,4.50
2018-07-09T21:36:52.883Z,4.83
2018-07-09T21:39:19.765Z,4.17
2018-07-09T21:41:48.881Z,4.22
2018-07-09T21:44:17.107Z,4.67
2018-07-09T21:46:44.182Z,4.00
2018-07-09T21:49:12.604Z,4.12
2018-07-09T21:51:40.523Z,4.03
2018-07-09T21:54:08.108Z,4.62
2018-07-09T21:56:36.142Z,5.15
2018-07-09T21:59:04.386Z,4.87
2018-07-09T22:01:31.250Z,4.83
2018-07-09T22:03:59.128Z,5.87
2018-07-09T22:06:28.004Z,5.22
2018-07-09T22:08:55.889Z,4.40
2018-07-09T22:11:23.748Z,4.58
2018-07-09T22:13:50.874Z,5.20
2018-07-09T22:16:19.076Z,4.90
2018-07-09T22:18:47.130Z,4.28
2018-07-09T22:21:15.850Z,4.70
2018-07-09T22:23:42.843Z,4.70
2018-07-09T22:26:11.009Z,4.45
2018-07-09T22:28:37.817Z,5.28
2018-07-09T22:31:05.223Z,5.25
2018-07-09T22:33:32.657Z,5.35
2018-07-09T22:36:00.017Z,4.42
2018-07-09T22:38:27.418Z,5.05
2018-07-09T22:40:54.844Z,4.42
2018-07-09T22:43:27.865Z,5.25
2018-07-09T22:45:55.225Z,4.53
2018-07-09T22:48:22.629Z,4.83
2018-07-09T22:50:50.021Z,5.53
2018-07-09T22:53:17.376Z,4.78
2018-07-09T22:55:50.212Z,4.85
2018-07-09T22:58:17.680Z,4.55
2018-07-09T23:00:45.079Z,4.83
2018-07-09T23:03:15.677Z,5.20
2018-07-09T23:05:43.148Z,4.30
2018-07-09T23:08:10.528Z,5.17
2018-07-09T23:12:46.098Z,4.80
2018-07-09T23:15:22.824Z,7.12
2018-07-09T23:18:54.474Z,4.75
2018-07-09T23:22:28.200Z,4.53
2018-07-09T23:24:55.108Z,4.20
2018-07-09T23:27:21.926Z,4.33
2018-07-09T23:29:48.752Z,4.45
2018-07-09T23:32:15.541Z,4.50
2018-07-09T23:34:42.346Z,4.80
2018-07-09T23:37:09.157Z,3.90
2018-07-09T23:39:35.947Z,4.87
2018-07-09T23:42:02.801Z,4.65
2018-07-09T23:44:29.623Z,4.12
2018-07-09T23:46:56.454Z,4.15
2018-07-09T23:49:23.265Z,3.40
2018-07-09T23:51:50.123Z,4.35
2018-07-09T23:54:16.931Z,4.40
2018-07-09T23:58:54.256Z,4.22
